Time;durP1;ratioP1;P1;durP2;ratioP2;P2;SDS_P1;SDS_P2;PMS_P1;PMS_P2;Temp;Humidity;BMP_temperature;BMP_pressure;BME280_temperature;BME280_humidity;BME280_pressure;Samples;Min_cycle;Max_cycle;Signal;HPM_P1;HPM_P2
2022/10/23 00:00:39;;;;;;;1.48;1.42;;;14.30;99.90;;;;;;4978228;28;20026;-76
2022/10/23 00:03:05;;;;;;;3.05;2.85;;;14.20;99.90;;;;;;4977969;28;20025;-78
2022/10/23 00:05:33;;;;;;;3.53;2.38;;;14.20;99.90;;;;;;4977883;28;20061;-79
2022/10/23 00:07:59;;;;;;;0.20;0.20;;;14.20;99.90;;;;;;4978423;28;20093;-80
2022/10/23 00:10:27;;;;;;;0.20;0.20;;;14.10;99.90;;;;;;4977887;28;20104;-79
2022/10/23 00:12:53;;;;;;;0.10;0.10;;;14.00;99.90;;;;;;4960070;28;20271;-81
2022/10/23 00:15:21;;;;;;;0.20;0.20;;;14.00;99.90;;;;;;4977781;28;20038;-85
2022/10/23 00:17:47;;;;;;;0.20;0.20;;;14.00;99.90;;;;;;4977460;28;20516;-78
2022/10/23 00:20:24;;;;;;;;;;;;;;;;;;;;;
2022/10/23 00:22:50;;;;;;;0.10;0.10;;;13.80;99.90;;;;;;4978098;28;20088;-79
2022/10/23 00:25:17;;;;;;;0.10;0.10;;;13.70;99.90;;;;;;4960913;28;20026;-79
2022/10/23 00:27:43;;;;;;;0.10;0.10;;;13.60;99.90;;;;;;4979040;28;20382;-78
2022/10/23 00:30:10;;;;;;;0.55;0.55;;;13.60;99.90;;;;;;4960954;28;20320;-83
2022/10/23 00:32:36;;;;;;;0.45;0.45;;;13.60;99.90;;;;;;4978300;28;20204;-82
2022/10/23 00:35:02;;;;;;;0.28;0.28;;;13.60;99.90;;;;;;4960234;28;20038;-79
2022/10/23 00:37:27;;;;;;;0.20;0.20;;;13.60;99.90;;;;;;4960448;28;20493;-79
2022/10/23 00:39:53;;;;;;;0.10;0.10;;;13.50;99.90;;;;;;4976833;28;20340;-79
2022/10/23 00:42:20;;;;;;;0.10;0.10;;;13.40;99.90;;;;;;4977961;28;20053;-79
2022/10/23 00:44:46;;;;;;;0.95;0.95;;;11.80;99.90;;;;;;4977836;28;20490;-84
2022/10/23 00:47:13;;;;;;;0.10;0.10;;;13.20;99.90;;;;;;4977931;28;20033;-79
2022/10/23 00:49:39;;;;;;;0.10;0.10;;;13.00;99.90;;;;;;4978243;28;20240;-81
2022/10/23 00:52:08;;;;;;;0.10;0.10;;;13.00;99.90;;;;;;4978065;28;20107;-83
2022/10/23 00:54:44;;;;;;;0.10;0.10;;;12.90;99.90;;;;;;4978131;28;20031;-79
2022/10/23 00:57:13;;;;;;;0.10;0.10;;;12.90;99.90;;;;;;4977826;28;20114;-81
2022/10/23 00:59:39;;;;;;;1.33;1.23;;;12.80;99.90;;;;;;4978411;28;20018;-81
2022/10/23 01:02:05;;;;;;;0.15;0.15;;;12.80;99.90;;;;;;4978199;28;20391;-78
2022/10/23 01:04:32;;;;;;;2.72;2.55;;;12.70;99.90;;;;;;4977807;28;20514;-82
2022/10/23 01:07:37;;;;;;;0.85;0.85;;;12.70;99.90;;;;;;4978183;28;20093;-90
2022/10/23 01:10:49;;;;;;;0.10;0.10;;;12.70;99.90;;;;;;4977434;28;20121;-78
2022/10/23 01:13:27;;;;;;;0.10;0.10;;;12.80;99.90;;;;;;4948549;28;20034;-85
2022/10/23 01:15:56;;;;;;;1.33;1.25;;;12.60;99.90;;;;;;4978778;28;20062;-79
2022/10/23 01:18:46;;;;;;;9.43;3.70;;;12.50;99.90;;;;;;4978624;28;20240;-80
2022/10/23 01:21:14;;;;;;;0.10;0.10;;;12.50;99.90;;;;;;4899605;29;20063;-81
2022/10/23 01:24:18;;;;;;;0.52;0.52;;;12.50;99.90;;;;;;4899256;29;20153;-78
2022/10/23 01:27:10;;;;;;;0.10;0.10;;;12.40;99.90;;;;;;4883610;29;20782;-80
2022/10/23 01:29:38;;;;;;;0.95;0.95;;;12.40;99.90;;;;;;4883708;29;20053;-79
2022/10/23 01:32:32;;;;;;;1.38;1.38;;;12.30;99.90;;;;;;4902447;29;20578;-83
2022/10/23 01:35:06;;;;;;;0.10;0.10;;;12.30;99.90;;;;;;4903813;29;20036;-79
2022/10/23 01:37:41;;;;;;;1.45;1.40;;;12.30;99.90;;;;;;4908224;29;20472;-78
2022/10/23 01:40:36;;;;;;;2.15;2.05;;;12.30;99.90;;;;;;4909175;29;20040;-81
2022/10/23 01:43:12;;;;;;;3.15;2.95;;;12.30;99.90;;;;;;4899843;29;20063;-78
2022/10/23 01:45:54;;;;;;;0.10;0.10;;;12.20;99.90;;;;;;4919519;29;20055;-79
2022/10/23 01:48:27;;;;;;;0.10;0.10;;;12.30;99.90;;;;;;4923186;29;20127;-78
2022/10/23 01:50:58;;;;;;;0.10;0.10;;;12.30;99.90;;;;;;4921561;29;20524;-77
2022/10/23 01:53:29;;;;;;;0.10;0.10;;;12.20;99.90;;;;;;4894952;29;20091;-80
2022/10/23 01:55:56;;;;;;;0.00;0.00;;;12.20;99.90;;;;;;4914823;29;20059;-79
2022/10/23 01:58:25;;;;;;;0.10;0.10;;;12.20;99.90;;;;;;4958804;28;20196;-78
2022/10/23 02:00:55;;;;;;;0.10;0.10;;;12.10;99.90;;;;;;5001308;28;20054;-78
2022/10/23 02:03:23;;;;;;;0.40;0.40;;;12.10;99.90;;;;;;4991814;28;20544;-80
2022/10/23 02:05:49;;;;;;;2.42;2.28;;;12.00;99.90;;;;;;4972645;28;20085;-79
2022/10/23 02:08:32;;;;;;;0.10;0.10;;;12.00;99.90;;;;;;4996572;28;20011;-77
2022/10/23 02:11:03;;;;;;;0.10;0.10;;;12.00;99.90;;;;;;4983426;28;20110;-80
2022/10/23 02:13:37;;;;;;;0.63;0.63;;;12.00;99.90;;;;;;5005790;28;20002;-78
2022/10/23 02:16:16;;;;;;;0.15;0.15;;;11.90;99.90;;;;;;5001984;23;20047;-78
2022/10/23 02:18:54;;;;;;;0.47;0.47;;;11.90;99.90;;;;;;4988102;28;20477;-77
2022/10/23 02:21:42;;;;;;;1.73;1.70;;;11.90;99.90;;;;;;4969188;28;20026;-78
2022/10/23 02:24:13;;;;;;;0.28;0.28;;;11.90;99.90;;;;;;4969071;28;20037;-78
2022/10/23 02:26:51;;;;;;;0.08;0.08;;;11.70;99.90;;;;;;4969382;28;20034;-78
2022/10/23 02:29:33;;;;;;;0.00;0.00;;;11.70;99.90;;;;;;4986895;28;20026;-79
2022/10/23 02:32:00;;;;;;;0.10;0.10;;;11.70;99.90;;;;;;5002437;28;20022;-78
2022/10/23 02:34:26;;;;;;;0.10;0.10;;;11.60;99.90;;;;;;4982764;28;20034;-78
2022/10/23 02:36:52;;;;;;;0.13;0.13;;;11.60;99.90;;;;;;5000872;28;20078;-78
2022/10/23 02:39:26;;;;;;;0.03;0.03;;;11.60;99.90;;;;;;4980754;28;20096;-78
2022/10/23 02:42:11;;;;;;;0.10;0.10;;;11.60;99.90;;;;;;4981223;28;20006;-78
2022/10/23 02:45:23;;;;;;;0.10;0.10;;;11.60;99.90;;;;;;5001873;28;20049;-78
2022/10/23 02:48:00;;;;;;;0.10;0.10;;;11.60;99.90;;;;;;5002642;28;20295;-79
2022/10/23 02:50:52;;;;;;;0.10;0.10;;;11.50;99.90;;;;;;5000766;28;20033;-78
2022/10/23 02:53:24;;;;;;;0.57;0.57;;;11.50;99.90;;;;;;5002418;28;20029;-78
2022/10/23 02:56:23;;;;;;;0.10;0.10;;;11.50;99.90;;;;;;5002465;28;20113;-79
2022/10/23 02:59:18;;;;;;;0.00;0.00;;;11.50;99.90;;;;;;5003849;28;20300;-79
2022/10/23 03:02:11;;;;;;;0.00;0.00;;;11.50;99.90;;;;;;5000967;28;20053;-78
2022/10/23 03:04:39;;;;;;;0.10;0.10;;;11.40;99.90;;;;;;4993246;28;20034;-87
2022/10/23 03:07:09;;;;;;;0.45;0.45;;;11.50;99.90;;;;;;4993219;28;20018;-78
2022/10/23 03:09:36;;;;;;;0.20;0.20;;;11.40;99.90;;;;;;4993200;28;20029;-87
2022/10/23 03:12:01;;;;;;;0.10;0.10;;;11.40;99.90;;;;;;5002159;28;20058;-78
2022/10/23 03:14:27;;;;;;;0.10;0.10;;;11.40;99.90;;;;;;5002597;28;20073;-77
2022/10/23 03:16:53;;;;;;;5.40;5.15;;;11.50;99.90;;;;;;4987568;28;20043;-78
2022/10/23 03:19:18;;;;;;;0.10;0.10;;;11.50;99.90;;;;;;5006464;28;20022;-89
2022/10/23 03:21:45;;;;;;;1.20;1.20;;;11.50;99.90;;;;;;5002275;28;20244;-79
2022/10/23 03:24:16;;;;;;;0.10;0.10;;;11.50;99.90;;;;;;5005445;28;20344;-79
2022/10/23 03:26:43;;;;;;;0.10;0.10;;;11.50;99.90;;;;;;5004246;28;20521;-77
2022/10/23 03:29:12;;;;;;;0.10;0.10;;;11.50;99.90;;;;;;5005074;28;20332;-78
2022/10/23 03:31:58;;;;;;;0.30;0.30;;;12.20;99.90;;;;;;4987705;28;20098;-78
2022/10/23 03:34:23;;;;;;;0.10;0.10;;;11.50;99.90;;;;;;4986042;28;20049;-78
2022/10/23 03:36:50;;;;;;;0.03;0.03;;;11.50;99.90;;;;;;5005060;28;20089;-79
2022/10/23 03:39:16;;;;;;;0.00;0.00;;;11.50;99.90;;;;;;5003297;28;20316;-78
2022/10/23 03:41:45;;;;;;;0.10;0.10;;;11.60;99.90;;;;;;5003059;28;20110;-82
2022/10/23 03:44:11;;;;;;;0.03;0.03;;;11.60;99.90;;;;;;4986957;28;20010;-78
2022/10/23 03:46:36;;;;;;;0.10;0.10;;;11.60;99.90;;;;;;4972641;28;20462;-79
2022/10/23 03:49:02;;;;;;;0.10;0.10;;;11.50;99.90;;;;;;4967396;28;20344;-78
2022/10/23 03:51:28;;;;;;;0.10;0.10;;;11.50;99.90;;;;;;4968573;28;20037;-78
2022/10/23 03:53:54;;;;;;;1.00;1.00;;;11.50;99.90;;;;;;4985797;28;20061;-78
2022/10/23 03:56:20;;;;;;;0.90;0.90;;;11.50;99.90;;;;;;4986266;28;20041;-77
2022/10/23 03:58:46;;;;;;;0.00;0.00;;;11.50;99.90;;;;;;4985966;28;20550;-77
2022/10/23 04:01:13;;;;;;;0.10;0.10;;;11.40;99.90;;;;;;4966405;28;20034;-78
2022/10/23 04:03:40;;;;;;;0.00;0.00;;;11.40;99.90;;;;;;4983845;28;20029;-78
2022/10/23 04:06:06;;;;;;;0.08;0.08;;;11.40;99.90;;;;;;4984151;28;20027;-78
2022/10/23 04:08:32;;;;;;;0.10;0.10;;;11.40;99.90;;;;;;4982602;28;20048;-78
2022/10/23 04:10:58;;;;;;;0.10;0.10;;;11.50;99.90;;;;;;4965826;28;20030;-77
2022/10/23 04:13:23;;;;;;;0.10;0.10;;;11.50;99.90;;;;;;4965272;28;20030;-77
2022/10/23 04:15:52;;;;;;;0.20;0.20;;;11.50;99.90;;;;;;4982598;28;20742;-78
2022/10/23 04:18:18;;;;;;;0.10;0.10;;;11.50;99.90;;;;;;4964456;28;20037;-77
2022/10/23 04:20:48;;;;;;;0.00;0.00;;;11.50;99.90;;;;;;4964421;28;20026;-78
2022/10/23 04:23:14;;;;;;;0.10;0.10;;;11.50;99.90;;;;;;4981264;28;20025;-77
2022/10/23 04:25:40;;;;;;;0.05;0.05;;;11.40;99.90;;;;;;4963424;28;20088;-77
2022/10/23 04:28:06;;;;;;;0.95;0.95;;;11.40;99.90;;;;;;4963218;28;20042;-77
2022/10/23 04:30:32;;;;;;;0.17;0.17;;;11.40;99.90;;;;;;4985967;28;20014;-79
2022/10/23 04:32:58;;;;;;;0.10;0.10;;;11.40;99.90;;;;;;4985726;28;20018;-80
2022/10/23 04:35:25;;;;;;;0.10;0.10;;;11.50;99.90;;;;;;4979885;28;20062;-81
2022/10/23 04:37:52;;;;;;;0.10;0.10;;;11.50;99.90;;;;;;4996294;28;20518;-78
2022/10/23 04:40:18;;;;;;;0.20;0.20;;;11.50;99.90;;;;;;4985045;28;20279;-78
2022/10/23 04:42:46;;;;;;;0.10;0.10;;;11.50;99.90;;;;;;4999728;28;20029;-78
2022/10/23 04:45:12;;;;;;;12.23;11.27;;;11.50;99.90;;;;;;4981541;28;20030;-77
2022/10/23 04:47:38;;;;;;;0.00;0.00;;;11.50;99.90;;;;;;4984291;28;20224;-78
2022/10/23 04:50:04;;;;;;;0.10;0.10;;;11.50;99.90;;;;;;4965727;28;20031;-77
2022/10/23 04:52:30;;;;;;;0.10;0.10;;;11.50;99.90;;;;;;4966488;28;20557;-78
2022/10/23 04:54:55;;;;;;;0.10;0.10;;;11.50;99.90;;;;;;4966708;28;20144;-78
2022/10/23 04:57:21;;;;;;;0.10;0.10;;;11.50;99.90;;;;;;4983187;28;20580;-78
2022/10/23 04:59:47;;;;;;;0.20;0.20;;;11.50;99.90;;;;;;4982383;28;20033;-78
2022/10/23 05:02:12;;;;;;;0.10;0.10;;;11.40;99.90;;;;;;4984621;28;20049;-78
2022/10/23 05:04:38;;;;;;;0.10;0.10;;;11.40;99.90;;;;;;4985953;28;20133;-78
2022/10/23 05:07:04;;;;;;;0.10;0.10;;;11.40;99.90;;;;;;4987884;28;20224;-77
2022/10/23 05:09:30;;;;;;;0.10;0.10;;;11.40;99.90;;;;;;4987615;28;20026;-77
2022/10/23 05:11:55;;;;;;;0.10;0.10;;;11.40;99.90;;;;;;4986958;28;20077;-78
2022/10/23 05:14:21;;;;;;;0.10;0.10;;;11.40;99.90;;;;;;4986576;28;20173;-77
2022/10/23 05:16:56;;;;;;;0.30;0.30;;;11.30;99.90;;;;;;4987372;28;20496;-78
2022/10/23 05:19:29;;;;;;;0.68;0.68;;;11.30;99.90;;;;;;4986850;28;20189;-78
2022/10/23 05:21:56;;;;;;;0.10;0.10;;;11.30;99.90;;;;;;4987325;28;20239;-77
2022/10/23 05:24:24;;;;;;;0.05;0.05;;;11.20;99.90;;;;;;4968691;28;20048;-77
2022/10/23 05:26:52;;;;;;;0.10;0.10;;;11.20;99.90;;;;;;4984761;28;20028;-77
2022/10/23 05:29:19;;;;;;;0.00;0.00;;;11.20;99.90;;;;;;4985081;28;20374;-77
2022/10/23 05:31:51;;;;;;;0.10;0.10;;;11.20;99.90;;;;;;4991013;28;20247;-78
2022/10/23 05:34:21;;;;;;;0.10;0.10;;;11.20;99.90;;;;;;4977270;28;20130;-81
2022/10/23 05:36:47;;;;;;;0.05;0.05;;;11.20;99.90;;;;;;4993508;28;20295;-79
2022/10/23 05:39:17;;;;;;;0.10;0.10;;;11.20;99.90;;;;;;4997042;28;20026;-76
2022/10/23 05:41:44;;;;;;;0.00;0.00;;;11.30;99.90;;;;;;4975319;28;20268;-77
2022/10/23 05:44:10;;;;;;;2.20;2.10;;;11.20;99.90;;;;;;4977133;28;20525;-81
2022/10/23 05:46:56;;;;;;;0.10;0.10;;;11.40;99.90;;;;;;4990267;28;20034;-77
2022/10/23 05:49:25;;;;;;;0.10;0.10;;;11.40;99.90;;;;;;4984603;28;20033;-77
2022/10/23 05:51:51;;;;;;;0.40;0.40;;;11.60;99.90;;;;;;4983671;28;20049;-77
2022/10/23 05:54:17;;;;;;;0.10;0.10;;;11.50;99.90;;;;;;4986127;28;20529;-79
2022/10/23 05:56:44;;;;;;;0.50;0.50;;;11.50;99.90;;;;;;4986722;28;20107;-76
2022/10/23 05:59:11;;;;;;;0.10;0.10;;;11.60;99.90;;;;;;4984515;28;20034;-78
2022/10/23 06:01:38;;;;;;;0.10;0.10;;;11.70;99.90;;;;;;4986029;28;20034;-78
2022/10/23 06:04:06;;;;;;;0.00;0.00;;;11.70;99.90;;;;;;4985519;28;20513;-76
2022/10/23 06:06:39;;;;;;;0.10;0.10;;;11.70;99.90;;;;;;4983231;28;20026;-76
2022/10/23 06:09:09;;;;;;;0.08;0.08;;;11.80;99.90;;;;;;4964787;28;20517;-77
2022/10/23 06:11:39;;;;;;;0.10;0.10;;;11.80;99.90;;;;;;4981095;28;20117;-79
2022/10/23 06:14:06;;;;;;;0.10;0.10;;;11.80;99.90;;;;;;4982320;28;20026;-76
2022/10/23 06:16:31;;;;;;;0.10;0.10;;;12.40;99.90;;;;;;4962898;28;20128;-77
2022/10/23 06:18:57;;;;;;;0.10;0.10;;;12.00;99.90;;;;;;4982852;28;20347;-82
2022/10/23 06:21:23;;;;;;;1.40;1.40;;;12.00;99.90;;;;;;4982583;28;20672;-77
2022/10/23 06:23:49;;;;;;;0.10;0.10;;;12.10;99.90;;;;;;4980985;28;20334;-77
2022/10/23 06:26:27;;;;;;;0.10;0.10;;;12.10;99.90;;;;;;4980358;28;20350;-77
2022/10/23 06:28:53;;;;;;;0.20;0.20;;;12.20;99.90;;;;;;4980778;28;20157;-82
2022/10/23 06:31:20;;;;;;;1.75;1.65;;;12.30;99.90;;;;;;4979971;28;20101;-78
2022/10/23 06:33:46;;;;;;;1.60;1.55;;;12.40;99.90;;;;;;4979808;28;20027;-84
2022/10/23 06:36:12;;;;;;;0.20;0.20;;;12.50;99.90;;;;;;4980281;28;20027;-78
2022/10/23 06:38:39;;;;;;;0.10;0.10;;;12.60;99.90;;;;;;4980282;28;20033;-83
2022/10/23 06:41:07;;;;;;;0.10;0.10;;;12.70;99.90;;;;;;4980529;28;20181;-77
2022/10/23 06:43:33;;;;;;;0.10;0.10;;;12.70;99.90;;;;;;4980291;28;20022;-85
2022/10/23 06:46:03;;;;;;;0.70;0.70;;;12.90;99.90;;;;;;4979585;28;20045;-78
2022/10/23 06:48:29;;;;;;;0.10;0.10;;;12.90;99.90;;;;;;4980258;28;20077;-77
2022/10/23 06:50:55;;;;;;;0.17;0.17;;;14.20;99.90;;;;;;4979692;28;20323;-88
2022/10/23 06:53:24;;;;;;;0.10;0.10;;;13.10;99.90;;;;;;4979718;28;20030;-77
2022/10/23 06:55:51;;;;;;;1.65;1.60;;;13.20;99.90;;;;;;4980324;28;20038;-78
2022/10/23 06:58:17;;;;;;;0.20;0.20;;;13.30;99.90;;;;;;4980326;28;20026;-87
2022/10/23 07:00:46;;;;;;;0.10;0.10;;;13.40;99.90;;;;;;4980364;28;20030;-85
2022/10/23 07:03:12;;;;;;;0.10;0.10;;;13.40;99.90;;;;;;4979725;28;20026;-87
2022/10/23 07:05:38;;;;;;;0.47;0.47;;;13.50;99.90;;;;;;4961183;28;20104;-77
2022/10/23 07:08:10;;;;;;;0.43;0.43;;;13.60;99.90;;;;;;4978839;28;20072;-76
2022/10/23 07:10:37;;;;;;;0.25;0.25;;;13.70;99.90;;;;;;4978562;28;20133;-82
2022/10/23 07:13:03;;;;;;;0.40;0.40;;;13.70;99.90;;;;;;4979213;28;20018;-77
2022/10/23 07:15:29;;;;;;;0.20;0.20;;;13.80;99.90;;;;;;4960648;28;20060;-80
2022/10/23 07:18:01;;;;;;;1.27;1.27;;;14.00;99.90;;;;;;4979461;28;20080;-76
2022/10/23 07:20:29;;;;;;;0.30;0.30;;;14.00;99.90;;;;;;4979567;28;20251;-80
2022/10/23 07:23:01;;;;;;;0.25;0.25;;;14.10;99.90;;;;;;4979072;28;20514;-77
2022/10/23 07:25:30;;;;;;;0.10;0.10;;;14.30;99.90;;;;;;4962483;28;20084;-77
2022/10/23 07:27:55;;;;;;;0.10;0.10;;;14.30;99.90;;;;;;4979005;28;20019;-81
2022/10/23 07:30:23;;;;;;;0.10;0.10;;;14.40;99.90;;;;;;4979478;28;20405;-77
2022/10/23 07:32:49;;;;;;;0.17;0.17;;;14.60;99.90;;;;;;4980410;28;20030;-77
2022/10/23 07:35:14;;;;;;;0.10;0.10;;;14.70;99.90;;;;;;4980139;28;20041;-91
2022/10/23 07:37:40;;;;;;;0.10;0.10;;;14.90;99.90;;;;;;4963583;28;20030;-84
2022/10/23 07:40:07;;;;;;;0.20;0.20;;;15.00;99.90;;;;;;4979945;28;20092;-88
2022/10/23 07:42:33;;;;;;;0.70;0.70;;;15.10;99.90;;;;;;4979613;28;20592;-86
2022/10/23 07:44:59;;;;;;;2.55;2.45;;;15.30;99.90;;;;;;4961526;28;20118;-92
2022/10/23 07:47:24;;;;;;;8.70;4.53;;;15.30;99.90;;;;;;4979913;28;20019;-77
2022/10/23 07:49:52;;;;;;;0.30;0.30;;;15.40;99.90;;;;;;4978664;28;20452;-76
2022/10/23 07:52:50;;;;;;;0.20;0.20;;;15.50;99.90;;;;;;4979191;28;20227;-76
2022/10/23 07:55:24;;;;;;;0.50;0.50;;;14.30;99.90;;;;;;4899048;29;20205;-75
2022/10/23 07:57:49;;;;;;;0.43;0.43;;;15.80;99.90;;;;;;4899650;29;20107;-77
2022/10/23 08:00:15;;;;;;;1.13;0.98;;;15.90;99.90;;;;;;4902772;29;20303;-76
2022/10/23 08:02:41;;;;;;;0.28;0.28;;;16.00;99.90;;;;;;4902073;29;20025;-77
2022/10/23 08:05:07;;;;;;;0.20;0.20;;;16.10;99.90;;;;;;4901916;29;20141;-78
2022/10/23 08:07:33;;;;;;;0.20;0.20;;;16.20;99.90;;;;;;4899043;29;20103;-76
2022/10/23 08:09:58;;;;;;;0.50;0.50;;;16.30;99.90;;;;;;4898905;29;20067;-77
2022/10/23 08:12:36;;;;;;;0.10;0.10;;;16.40;99.90;;;;;;4899341;29;20456;-80
2022/10/23 08:15:07;;;;;;;0.30;0.30;;;16.60;99.90;;;;;;4883212;29;20313;-77
2022/10/23 08:17:33;;;;;;;0.20;0.20;;;16.70;99.90;;;;;;4898236;29;20191;-77
2022/10/23 08:19:59;;;;;;;0.93;0.93;;;16.90;99.90;;;;;;4899221;29;20416;-75
2022/10/23 08:22:27;;;;;;;3.50;3.30;;;17.00;99.90;;;;;;4899984;29;20044;-83
2022/10/23 08:24:53;;;;;;;0.88;0.65;;;17.20;99.90;;;;;;4899326;29;20270;-81
2022/10/23 08:27:19;;;;;;;0.70;0.70;;;17.40;99.90;;;;;;4899352;29;20229;-84
2022/10/23 08:29:44;;;;;;;0.10;0.10;;;17.40;99.90;;;;;;4900187;29;20025;-78
2022/10/23 08:32:10;;;;;;;1.25;1.20;;;17.60;99.90;;;;;;4921636;28;20513;-80
2022/10/23 08:34:36;;;;;;;0.10;0.10;;;17.70;99.90;;;;;;4978713;28;20027;-81
2022/10/23 08:37:02;;;;;;;0.20;0.20;;;17.80;99.90;;;;;;4978884;28;20418;-79
2022/10/23 08:39:28;;;;;;;0.20;0.20;;;;;;;;;;4964061;28;20030;-84
2022/10/23 08:41:54;;;;;;;0.65;0.65;;;18.10;99.20;;;;;;4986297;28;20022;-86
2022/10/23 08:44:49;;;;;;;1.27;1.17;;;18.20;99.20;;;;;;4985519;28;20023;-79
2022/10/23 08:47:25;;;;;;;0.85;0.85;;;18.20;98.50;;;;;;4984733;28;20065;-78
2022/10/23 08:49:56;;;;;;;28.48;4.05;;;18.10;98.30;;;;;;4984691;28;20088;-79
2022/10/23 08:52:39;;;;;;;0.20;0.20;;;18.20;98.40;;;;;;4984860;28;20026;-75
2022/10/23 08:55:27;;;;;;;1.02;1.02;;;18.40;98.30;;;;;;4984609;28;20035;-80
2022/10/23 08:58:34;;;;;;;0.90;0.90;;;18.40;98.10;;;;;;4984768;28;20019;-81
2022/10/23 09:00:59;;;;;;;0.20;0.20;;;18.90;98.10;;;;;;4984661;28;20015;-87
2022/10/23 09:03:26;;;;;;;0.57;0.57;;;18.60;97.90;;;;;;4984943;28;20089;-76
2022/10/23 09:06:40;;;;;;;0.10;0.10;;;18.70;97.90;;;;;;4966761;28;20101;-76
2022/10/23 09:09:33;;;;;;;2.65;2.45;;;18.90;97.90;;;;;;4904949;29;20294;-80
2022/10/23 09:12:04;;;;;;;0.20;0.20;;;19.10;97.50;;;;;;4905151;29;20059;-78
2022/10/23 09:14:54;;;;;;;2.55;0.90;;;19.20;97.20;;;;;;4904960;29;20044;-78
2022/10/23 09:17:36;;;;;;;1.02;1.02;;;19.30;97.00;;;;;;4905781;29;20079;-79
2022/10/23 09:20:23;;;;;;;0.20;0.20;;;19.50;96.70;;;;;;4905855;29;20036;-88
2022/10/23 09:22:56;;;;;;;0.32;0.32;;;19.60;96.40;;;;;;4906478;29;20028;-81
2022/10/23 09:25:28;;;;;;;0.20;0.20;;;19.70;96.50;;;;;;4889462;29;20025;-78
2022/10/23 09:27:57;;;;;;;36.20;3.22;;;19.90;96.00;;;;;;4891232;29;20024;-90
2022/10/23 09:30:27;;;;;;;0.10;0.10;;;20.10;95.50;;;;;;4906687;29;20016;-87
2022/10/23 09:32:52;;;;;;;0.10;0.10;;;20.30;95.30;;;;;;4905075;29;20123;-83
2022/10/23 09:35:28;;;;;;;0.28;0.28;;;20.40;95.00;;;;;;4905010;29;20123;-78
2022/10/23 09:37:55;;;;;;;1.15;1.10;;;20.50;95.30;;;;;;4904864;29;20175;-78
2022/10/23 09:40:39;;;;;;;1.08;0.73;;;20.50;96.00;;;;;;4904864;29;20040;-83
2022/10/23 09:43:16;;;;;;;1.35;1.25;;;20.60;95.10;;;;;;4890859;29;20024;-82
2022/10/23 09:45:42;;;;;;;0.40;0.40;;;20.80;94.50;;;;;;4937789;28;20042;-78
2022/10/23 09:48:17;;;;;;;2.10;2.00;;;20.90;94.10;;;;;;4985105;28;20065;-82
2022/10/23 09:50:50;;;;;;;0.77;0.75;;;21.00;93.70;;;;;;4964652;28;20029;-82
2022/10/23 09:53:25;;;;;;;0.28;0.28;;;21.10;93.70;;;;;;4982002;28;20242;-77
2022/10/23 09:55:56;;;;;;;0.52;0.52;;;21.10;94.00;;;;;;4982080;28;20080;-79
2022/10/23 09:58:55;;;;;;;2.85;2.67;;;21.20;93.60;;;;;;4963945;28;20022;-84
2022/10/23 10:01:34;;;;;;;0.10;0.10;;;21.40;93.40;;;;;;4981065;28;20324;-87
2022/10/23 10:04:00;;;;;;;0.45;0.45;;;21.40;94.00;;;;;;4981454;28;20049;-80
2022/10/23 10:06:29;;;;;;;0.30;0.30;;;21.60;94.10;;;;;;4981265;28;20690;-85
2022/10/23 10:09:01;;;;;;;1.50;1.27;;;21.40;93.20;;;;;;4981306;28;20025;-81
2022/10/23 10:11:27;;;;;;;0.63;0.63;;;21.60;94.20;;;;;;4981471;28;20022;-84
2022/10/23 10:14:24;;;;;;;0.63;0.63;;;21.70;93.80;;;;;;4981028;28;20324;-78
2022/10/23 10:17:04;;;;;;;0.10;0.10;;;22.00;93.40;;;;;;4980675;28;20058;-81
2022/10/23 10:19:38;;;;;;;0.57;0.57;;;22.00;92.80;;;;;;4981139;28;20022;-82
2022/10/23 10:22:27;;;;;;;0.47;0.47;;;22.30;93.00;;;;;;4980968;28;20026;-82
2022/10/23 10:25:13;;;;;;;3.10;2.15;;;22.70;92.20;;;;;;4981374;28;20049;-81
2022/10/23 10:27:51;;;;;;;0.10;0.10;;;22.90;91.90;;;;;;4980868;28;20072;-82
2022/10/23 10:30:16;;;;;;;0.30;0.30;;;23.10;91.40;;;;;;4981007;28;20093;-78
2022/10/23 10:32:58;;;;;;;1.02;0.90;;;23.20;91.10;;;;;;4980414;28;20101;-78
2022/10/23 10:35:27;;;;;;;0.30;0.30;;;23.30;91.00;;;;;;4980326;28;20045;-77
2022/10/23 10:38:27;;;;;;;0.38;0.35;;;23.50;90.10;;;;;;4980206;28;20019;-79
2022/10/23 10:41:29;;;;;;;2.72;2.47;;;23.60;89.80;;;;;;4980173;28;20506;-88
2022/10/23 10:44:28;;;;;;;0.70;0.40;;;23.80;90.50;;;;;;4962060;28;20492;-77
2022/10/23 10:47:22;;;;;;;0.88;0.75;;;23.10;88.80;;;;;;4980474;28;20280;-84
2022/10/23 10:50:25;;;;;;;3.85;3.55;;;24.20;87.70;;;;;;4962816;28;20026;-80
2022/10/23 10:53:21;;;;;;;1.40;1.30;;;24.30;87.50;;;;;;4979971;28;20275;-83
2022/10/23 10:55:52;;;;;;;0.10;0.10;;;24.10;87.50;;;;;;4980002;28;20332;-80
2022/10/23 10:58:22;;;;;;;0.52;0.50;;;24.20;87.30;;;;;;4980140;28;20490;-81
2022/10/23 11:00:59;;;;;;;2.72;1.00;;;24.40;88.30;;;;;;4980113;28;20833;-90
2022/10/23 11:03:38;;;;;;;0.10;0.10;;;24.40;86.00;;;;;;4979755;28;20033;-89
2022/10/23 11:06:11;;;;;;;1.42;1.38;;;24.60;85.30;;;;;;4980008;28;20042;-91
2022/10/23 11:08:40;;;;;;;2.20;1.42;;;24.80;86.00;;;;;;4980089;28;20517;-78
2022/10/23 11:11:25;;;;;;;0.10;0.10;;;24.90;84.30;;;;;;4980736;28;20239;-82
2022/10/23 11:13:52;;;;;;;2.65;2.22;;;;;;;;;;4963309;28;20034;-77
2022/10/23 11:16:34;;;;;;;0.10;0.10;;;25.10;82.40;;;;;;4981173;28;20770;-80
2022/10/23 11:19:11;;;;;;;0.30;0.30;;;25.10;82.40;;;;;;4982228;28;20114;-77
2022/10/23 11:21:51;;;;;;;2.90;2.80;;;25.00;82.40;;;;;;4983221;28;20022;-84
2022/10/23 11:24:38;;;;;;;3.22;3.13;;;25.20;81.70;;;;;;4983271;28;20050;-91
2022/10/23 11:27:19;;;;;;;0.25;0.25;;;25.20;82.00;;;;;;4962716;28;20374;-85
2022/10/23 11:30:12;;;;;;;0.32;0.32;;;25.10;82.20;;;;;;4980720;28;20046;-84
2022/10/23 11:32:50;;;;;;;0.13;0.13;;;25.10;81.40;;;;;;4979519;28;20062;-78
2022/10/23 11:35:34;;;;;;;0.25;0.25;;;25.30;81.30;;;;;;4979276;28;20046;-80
2022/10/23 11:38:12;;;;;;;0.20;0.20;;;25.60;81.00;;;;;;4980018;28;20026;-85
2022/10/23 11:40:47;;;;;;;0.80;0.80;;;25.30;80.40;;;;;;4979439;28;20037;-90
2022/10/23 11:43:28;;;;;;;2.20;2.10;;;25.70;80.60;;;;;;4979662;28;20022;-78
2022/10/23 11:45:55;;;;;;;2.40;1.48;;;25.70;81.40;;;;;;4979434;28;20035;-80
2022/10/23 11:48:39;;;;;;;4.90;2.40;;;25.80;79.30;;;;;;4979351;28;20026;-80
2022/10/23 11:51:24;;;;;;;3.45;1.05;;;26.00;79.50;;;;;;4980062;28;20021;-82
2022/10/23 11:53:50;;;;;;;2.17;2.08;;;26.20;79.40;;;;;;4979360;28;20045;-84
2022/10/23 11:56:18;;;;;;;1.17;0.75;;;26.30;77.90;;;;;;4979201;28;20461;-85
2022/10/23 11:58:58;;;;;;;0.60;0.60;;;26.50;78.40;;;;;;4978985;28;20037;-76
2022/10/23 12:01:36;;;;;;;0.10;0.10;;;26.50;77.00;;;;;;4961340;28;20076;-79
2022/10/23 12:04:14;;;;;;;4.68;1.33;;;26.50;76.40;;;;;;4979075;28;20086;-85
2022/10/23 12:06:43;;;;;;;0.17;0.17;;;26.80;76.30;;;;;;4962384;28;20378;-79
2022/10/23 12:09:24;;;;;;;0.08;0.08;;;26.50;77.00;;;;;;4978862;28;20399;-77
2022/10/23 12:12:14;;;;;;;0.20;0.20;;;26.30;75.80;;;;;;4979203;28;20367;-76
2022/10/23 12:14:48;;;;;;;0.00;0.00;;;26.60;76.10;;;;;;4898803;29;20064;-77
2022/10/23 12:17:23;;;;;;;0.15;0.15;;;26.80;75.70;;;;;;4899044;29;20459;-81
2022/10/23 12:19:51;;;;;;;0.30;0.30;;;27.00;74.80;;;;;;4900084;29;20052;-82
2022/10/23 12:22:19;;;;;;;4.38;4.03;;;27.10;74.90;;;;;;4899551;29;20273;-80
2022/10/23 12:25:01;;;;;;;1.55;1.10;;;27.10;73.60;;;;;;4899491;29;20716;-76
2022/10/23 12:27:50;;;;;;;0.55;0.45;;;27.10;74.20;;;;;;4899185;29;20028;-77
2022/10/23 12:30:32;;;;;;;0.65;0.65;;;27.00;73.00;;;;;;4899018;29;20184;-79
2022/10/23 12:33:16;;;;;;;0.35;0.20;;;27.10;73.60;;;;;;4899551;29;20309;-79
2022/10/23 12:35:48;;;;;;;1.00;0.68;;;27.30;73.40;;;;;;4899130;29;20056;-79
2022/10/23 12:38:27;;;;;;;0.15;0.15;;;27.30;73.20;;;;;;4899223;29;20151;-82
2022/10/23 12:41:16;;;;;;;0.13;0.13;;;27.50;72.20;;;;;;4898863;29;20385;-82
2022/10/23 12:43:49;;;;;;;0.10;0.10;;;27.70;71.60;;;;;;4883056;29;20047;-78
2022/10/23 12:46:39;;;;;;;1.38;0.45;;;27.70;70.80;;;;;;4898575;29;20595;-80
2022/10/23 12:49:22;;;;;;;1.98;0.88;;;28.00;70.90;;;;;;4898508;29;20039;-81
2022/10/23 12:51:58;;;;;;;1.95;1.75;;;28.20;70.20;;;;;;4940458;28;20035;-77
2022/10/23 12:54:25;;;;;;;0.43;0.43;;;28.20;69.30;;;;;;4978094;28;20037;-78
2022/10/23 12:56:52;;;;;;;0.50;0.50;;;27.90;69.90;;;;;;4978575;28;20030;-78
2022/10/23 12:59:37;;;;;;;0.20;0.20;;;27.90;69.60;;;;;;4978407;28;20033;-78
2022/10/23 13:02:33;;;;;;;0.93;0.68;;;27.70;69.30;;;;;;4978728;28;20022;-77
2022/10/23 13:05:06;;;;;;;0.17;0.17;;;27.60;69.50;;;;;;4898913;29;20252;-78
2022/10/23 13:07:36;;;;;;;0.73;0.73;;;27.80;69.50;;;;;;4898863;29;20056;-83
2022/10/23 13:10:03;;;;;;;4.05;3.55;;;28.00;69.60;;;;;;4898733;29;20214;-80
2022/10/23 13:12:32;;;;;;;0.63;0.57;;;28.30;69.50;;;;;;4898243;29;20040;-77
2022/10/23 13:15:06;;;;;;;3.65;3.45;;;28.20;68.70;;;;;;4898320;29;20045;-79
2022/10/23 13:17:44;;;;;;;0.55;0.55;;;28.10;68.20;;;;;;4882197;29;20063;-79